Startpagina
METAR-TAF:

METAR-TAF

Vliegvelden :

Luchthaven Kärdla

Kärdla, Estland

breedte: 58-59N, lengte: 022-49E, hoogte: 5 m

Actueel weer

Dit bericht is 15 minuten geleden gemaakt, om 11:50 UTC
Wind 11 kt uit het zuidoosten
Temperatuur 1°C
Vochtigheid 80%
Druk 1027 hPa
Zicht 10 km of meer
Geheel bewolkt op 1500 ft

METAR: EEKA 221150Z 13011KT 9999 OVC015 01/M02 Q1027

Tijdstip: 14:05 (12:05 UTC)

Verwachting

Dit bericht is 8 uur en het 5 minuten geleden gemaakt, om 04:00 UTC
Verwachting geldig van 22 om 05 UTC tot 22 om 11 UTC
Wind 17 kt uit het zuidzuidoosten met uitschieters tot 27 kt
Zicht 10 km of meer
Gebroken wolken op 1500 ft

TAF: EEKA 220400Z 2205/2211 15017G27KT 9999 BKN015

Waarnemingen en weersverwachtingen van meer dan 4000 vliegvelden (METAR en TAF).

De beschikbare stations zijn de gele en rode punten op de kaart.

Ga met uw muis naar het station om de naam te zien.

Klik dan om waarnemingen en weersverwachtingen te zien.

kaart wijzigen: klik op de groene knoppen met een zwart kruis om in te zoomen, op de groene knop met een streepje om uit te zoomen of op de groene pijlen voor aangrenzende kaarten.


METAR-TAF: